Time;durP1;ratioP1;P1;durP2;ratioP2;P2;SDS_P1;SDS_P2;PMS_P1;PMS_P2;Temp;Humidity;BMP_temperature;BMP_pressure;BME280_temperature;BME280_humidity;BME280_pressure;Samples;Min_cycle;Max_cycle;Signal;HPM_P1;HPM_P2
2022/09/06 00:00:12;;;;;;;5.68;5.18;;;16.00;99.90;;;;;;5058475;28;20431;-57
2022/09/06 00:02:38;;;;;;;6.25;5.75;;;16.00;99.90;;;;;;5060180;28;20480;-57
2022/09/06 00:05:04;;;;;;;5.15;4.75;;;15.90;99.90;;;;;;5056608;28;20044;-58
2022/09/06 00:07:30;;;;;;;5.82;5.43;;;15.80;99.90;;;;;;5054838;28;20028;-57
2022/09/06 00:09:56;;;;;;;6.30;4.50;;;15.80;99.90;;;;;;5065109;28;20094;-57
2022/09/06 00:12:23;;;;;;;4.57;4.28;;;15.70;99.90;;;;;;5061176;28;20028;-57
2022/09/06 00:14:49;;;;;;;4.50;4.10;;;15.70;99.90;;;;;;5058768;28;20040;-59
2022/09/06 00:17:15;;;;;;;4.72;4.32;;;15.60;99.90;;;;;;5055060;28;20025;-56
2022/09/06 00:19:40;;;;;;;4.90;4.43;;;15.50;99.90;;;;;;5058137;28;20036;-57
2022/09/06 00:22:06;;;;;;;5.05;4.65;;;15.50;99.90;;;;;;5058464;28;20032;-57
2022/09/06 00:24:32;;;;;;;6.20;4.78;;;15.50;99.90;;;;;;5055615;28;20032;-58
2022/09/06 00:26:58;;;;;;;6.45;5.95;;;15.50;99.90;;;;;;5055233;28;20476;-57
2022/09/06 00:29:23;;;;;;;5.72;5.22;;;15.50;99.90;;;;;;5057636;28;20029;-59
2022/09/06 00:31:49;;;;;;;5.40;5.00;;;15.40;99.90;;;;;;5054882;28;20025;-60
2022/09/06 00:34:15;;;;;;;8.60;6.03;;;15.40;99.90;;;;;;5058063;28;20043;-59
2022/09/06 00:36:40;;;;;;;5.75;5.35;;;15.40;99.90;;;;;;5056404;28;20028;-59
2022/09/06 00:39:06;;;;;;;6.18;5.25;;;15.40;99.90;;;;;;5058997;28;20075;-60
2022/09/06 00:41:31;;;;;;;6.88;5.68;;;15.40;99.90;;;;;;5045014;28;20029;-61
2022/09/06 00:43:57;;;;;;;5.68;5.28;;;15.40;99.90;;;;;;5057299;28;20029;-59
2022/09/06 00:46:27;;;;;;;6.22;5.75;;;15.40;99.90;;;;;;5054925;28;20037;-61
2022/09/06 00:48:58;;;;;;;6.53;6.00;;;15.40;99.90;;;;;;5055239;28;20116;-59
2022/09/06 00:51:27;;;;;;;6.38;5.93;;;15.40;99.90;;;;;;5054348;28;20040;-61
2022/09/06 00:53:53;;;;;;;6.57;5.97;;;15.50;99.90;;;;;;5059715;28;20369;-59
2022/09/06 00:56:19;;;;;;;7.30;6.68;;;15.50;99.90;;;;;;5056894;28;20025;-59
2022/09/06 00:58:47;;;;;;;6.95;6.47;;;15.50;99.90;;;;;;5060997;28;20507;-59
2022/09/06 01:01:13;;;;;;;7.07;6.50;;;15.40;99.90;;;;;;5057733;28;20481;-59
2022/09/06 01:03:39;;;;;;;7.50;6.30;;;15.40;99.90;;;;;;5058014;28;20033;-62
2022/09/06 01:06:17;;;;;;;7.32;6.70;;;15.40;99.90;;;;;;5055522;28;20334;-59
2022/09/06 01:08:57;;;;;;;7.95;7.15;;;15.30;99.90;;;;;;5059907;28;20429;-60
2022/09/06 01:11:37;;;;;;;10.70;7.57;;;15.20;99.90;;;;;;5054202;28;20083;-59
2022/09/06 01:14:10;;;;;;;7.45;6.90;;;15.20;99.90;;;;;;5057355;28;20043;-59
2022/09/06 01:16:52;;;;;;;6.95;6.35;;;15.10;99.90;;;;;;5056171;28;20043;-60
2022/09/06 01:19:56;;;;;;;8.30;7.70;;;15.00;99.90;;;;;;5053181;28;20021;-59
2022/09/06 01:22:40;;;;;;;6.38;5.78;;;14.90;99.90;;;;;;5054521;28;20055;-60
2022/09/06 01:25:09;;;;;;;7.90;7.10;;;14.90;99.90;;;;;;5056688;28;20032;-59
2022/09/06 01:28:19;;;;;;;7.85;7.15;;;14.80;99.90;;;;;;5055553;28;20056;-61
2022/09/06 01:31:16;;;;;;;6.78;6.32;;;14.80;99.90;;;;;;5043165;28;20064;-62
2022/09/06 01:34:06;;;;;;;6.95;6.35;;;14.80;99.90;;;;;;5021890;28;20032;-61
2022/09/06 01:36:46;;;;;;;8.48;7.78;;;14.70;99.90;;;;;;5054043;28;20396;-60
2022/09/06 01:39:21;;;;;;;7.97;7.28;;;14.70;99.90;;;;;;5055088;28;20052;-59
2022/09/06 01:41:47;;;;;;;9.00;8.18;;;14.70;99.90;;;;;;5056503;28;20024;-61
2022/09/06 01:44:13;;;;;;;7.78;7.18;;;14.70;99.90;;;;;;5057478;28;20036;-61
2022/09/06 01:47:08;;;;;;;8.30;7.25;;;14.70;99.90;;;;;;5057230;28;20129;-60
2022/09/06 01:50:24;;;;;;;8.27;7.18;;;14.60;99.90;;;;;;5049947;28;20040;-60
2022/09/06 01:53:11;;;;;;;8.07;7.57;;;14.60;99.90;;;;;;5036232;28;20024;-60
2022/09/06 01:55:51;;;;;;;7.57;7.07;;;14.60;99.90;;;;;;5055469;28;20396;-59
2022/09/06 01:58:46;;;;;;;8.93;8.00;;;14.60;99.90;;;;;;5056310;28;20083;-61
2022/09/06 02:01:15;;;;;;;7.93;7.43;;;14.60;99.90;;;;;;4977285;28;20040;-60
2022/09/06 02:03:53;;;;;;;9.80;9.13;;;14.50;99.90;;;;;;5053012;28;20490;-60
2022/09/06 02:06:37;;;;;;;10.23;9.40;;;14.50;99.90;;;;;;5050083;28;20489;-60
2022/09/06 02:09:07;;;;;;;9.20;8.40;;;14.50;99.90;;;;;;5055007;28;20063;-60
2022/09/06 02:11:43;;;;;;;9.07;8.48;;;14.50;99.90;;;;;;5056345;28;20029;-60
2022/09/06 02:14:15;;;;;;;8.73;8.05;;;14.50;99.90;;;;;;5062482;28;20024;-60
2022/09/06 02:16:44;;;;;;;9.15;8.55;;;14.50;99.90;;;;;;5036038;28;20028;-60
2022/09/06 02:19:28;;;;;;;7.68;7.07;;;14.60;99.90;;;;;;5054335;28;20025;-61
2022/09/06 02:21:57;;;;;;;6.75;6.15;;;14.50;99.90;;;;;;5056024;28;20032;-60
2022/09/06 02:24:29;;;;;;;8.32;7.72;;;14.50;99.90;;;;;;5056128;28;20107;-60
2022/09/06 02:26:55;;;;;;;9.30;8.70;;;14.40;99.90;;;;;;5057137;28;20024;-60
2022/09/06 02:29:21;;;;;;;7.32;6.65;;;14.40;99.90;;;;;;5058418;28;20510;-60
2022/09/06 02:31:53;;;;;;;7.85;7.28;;;14.40;99.90;;;;;;5054266;28;20029;-60
2022/09/06 02:34:20;;;;;;;7.32;6.82;;;14.20;99.90;;;;;;5056068;28;20376;-60
2022/09/06 02:36:53;;;;;;;8.00;7.18;;;14.20;99.90;;;;;;5054519;28;20040;-61
2022/09/06 02:39:19;;;;;;;7.95;7.28;;;14.10;99.90;;;;;;5057428;28;20118;-60
2022/09/06 02:41:46;;;;;;;7.82;7.22;;;14.10;99.90;;;;;;5043137;28;20100;-60
2022/09/06 02:44:13;;;;;;;8.32;7.72;;;14.00;99.90;;;;;;5053533;28;20499;-61
2022/09/06 02:46:39;;;;;;;8.13;7.57;;;14.00;99.90;;;;;;5055837;28;20175;-61
2022/09/06 02:49:05;;;;;;;8.13;7.40;;;13.90;99.90;;;;;;5055962;28;20108;-61
2022/09/06 02:51:38;;;;;;;8.95;8.35;;;14.00;99.90;;;;;;5055062;28;20036;-60
2022/09/06 02:54:06;;;;;;;8.65;8.05;;;14.00;99.90;;;;;;5058947;28;20066;-61
2022/09/06 02:56:32;;;;;;;8.55;7.90;;;14.00;99.90;;;;;;5052549;28;20058;-60
2022/09/06 02:58:59;;;;;;;8.65;8.05;;;14.00;99.90;;;;;;5057524;28;20093;-60
2022/09/06 03:01:25;;;;;;;10.00;9.13;;;14.00;99.90;;;;;;5054521;28;20144;-60
2022/09/06 03:03:51;;;;;;;9.73;9.05;;;14.00;99.90;;;;;;5050973;28;20025;-61
2022/09/06 03:06:20;;;;;;;8.57;7.97;;;14.10;99.90;;;;;;5057650;28;20024;-60
2022/09/06 03:08:46;;;;;;;9.98;9.27;;;14.10;99.90;;;;;;5055190;28;20108;-61
2022/09/06 03:11:11;;;;;;;10.00;9.30;;;14.10;99.90;;;;;;5055100;28;20112;-60
2022/09/06 03:13:37;;;;;;;10.10;9.30;;;14.20;99.90;;;;;;5053019;28;20707;-61
2022/09/06 03:16:03;;;;;;;9.70;9.00;;;14.20;99.90;;;;;;5059278;28;20112;-60
2022/09/06 03:18:30;;;;;;;9.27;8.68;;;14.30;99.90;;;;;;5056432;28;20399;-60
2022/09/06 03:20:57;;;;;;;10.23;9.45;;;14.30;99.90;;;;;;5064282;28;20511;-60
2022/09/06 03:23:24;;;;;;;8.70;8.00;;;14.40;99.90;;;;;;5061755;28;20029;-61
2022/09/06 03:25:50;;;;;;;9.38;8.73;;;14.50;99.90;;;;;;5057788;28;20339;-60
2022/09/06 03:28:17;;;;;;;8.25;7.65;;;14.50;99.90;;;;;;5058652;28;20119;-60
2022/09/06 03:30:47;;;;;;;6.65;6.25;;;14.50;99.90;;;;;;5067728;28;20563;-61
2022/09/06 03:33:13;;;;;;;8.32;7.53;;;14.50;99.90;;;;;;5040649;28;20086;-60
2022/09/06 03:35:39;;;;;;;17.83;8.65;;;14.50;99.90;;;;;;5060382;28;20055;-60
2022/09/06 03:38:04;;;;;;;8.98;8.32;;;14.50;99.90;;;;;;5059876;28;20464;-60
2022/09/06 03:40:30;;;;;;;9.18;8.52;;;14.50;99.90;;;;;;5064252;28;20487;-60
2022/09/06 03:42:56;;;;;;;9.57;8.90;;;14.40;99.90;;;;;;5063707;28;20040;-60
2022/09/06 03:45:21;;;;;;;8.90;8.30;;;14.40;99.90;;;;;;5064514;28;20044;-61
2022/09/06 03:47:47;;;;;;;7.55;7.00;;;14.40;99.90;;;;;;5058534;28;20039;-61
2022/09/06 03:50:13;;;;;;;5.68;5.13;;;14.30;99.90;;;;;;5057302;28;20018;-60
2022/09/06 03:52:39;;;;;;;8.75;7.95;;;14.30;99.90;;;;;;5055269;28;20104;-60
2022/09/06 03:55:05;;;;;;;9.77;6.03;;;14.30;99.90;;;;;;5038641;28;20400;-60
2022/09/06 03:57:31;;;;;;;8.43;7.72;;;14.20;99.90;;;;;;5062091;28;20017;-60
2022/09/06 03:59:57;;;;;;;7.70;7.10;;;14.20;99.90;;;;;;5055884;28;20036;-60
2022/09/06 04:02:22;;;;;;;9.95;9.32;;;14.20;99.90;;;;;;5063119;28;20033;-60
2022/09/06 04:04:48;;;;;;;11.35;10.45;;;14.20;99.90;;;;;;5055493;28;20057;-61
2022/09/06 04:07:14;;;;;;;10.65;9.88;;;14.20;99.90;;;;;;5056442;28;20029;-59
2022/09/06 04:09:39;;;;;;;10.20;9.50;;;14.10;99.90;;;;;;5059371;28;20692;-60
2022/09/06 04:12:05;;;;;;;8.55;7.95;;;14.20;99.90;;;;;;5058602;28;20779;-60
2022/09/06 04:14:31;;;;;;;10.43;9.73;;;14.10;99.90;;;;;;5056298;28;20086;-60
2022/09/06 04:16:56;;;;;;;11.55;10.48;;;14.10;99.90;;;;;;5055733;28;20111;-60
2022/09/06 04:19:22;;;;;;;10.52;9.73;;;14.20;99.90;;;;;;5051599;28;20039;-61
2022/09/06 04:21:48;;;;;;;11.43;10.63;;;14.20;99.90;;;;;;5053417;28;20021;-61
2022/09/06 04:24:14;;;;;;;12.10;11.07;;;14.20;99.90;;;;;;5058720;28;20025;-59
2022/09/06 04:26:39;;;;;;;9.80;9.00;;;14.30;99.90;;;;;;5056458;28;20040;-60
2022/09/06 04:29:05;;;;;;;12.82;11.93;;;14.30;99.90;;;;;;5057384;28;20853;-60
2022/09/06 04:31:31;;;;;;;12.10;11.20;;;14.30;99.90;;;;;;5055989;28;20436;-60
2022/09/06 04:33:56;;;;;;;14.18;13.05;;;14.30;99.90;;;;;;5056267;28;20036;-61
2022/09/06 04:36:22;;;;;;;12.48;11.63;;;14.40;99.90;;;;;;5054800;28;20021;-60
2022/09/06 04:38:48;;;;;;;13.88;12.60;;;14.50;99.90;;;;;;5057792;28;20024;-60
2022/09/06 04:41:16;;;;;;;13.27;12.23;;;14.50;99.90;;;;;;5055940;28;20029;-61
2022/09/06 04:43:41;;;;;;;12.75;11.95;;;14.60;99.90;;;;;;5052313;28;20443;-60
2022/09/06 04:46:26;;;;;;;13.52;12.63;;;14.70;99.90;;;;;;5053251;28;20041;-60
2022/09/06 04:48:53;;;;;;;12.52;11.65;;;14.70;99.90;;;;;;5061827;28;20028;-60
2022/09/06 04:51:20;;;;;;;13.18;12.20;;;14.70;99.90;;;;;;5058279;28;20021;-62
2022/09/06 04:53:46;;;;;;;12.38;11.48;;;14.70;99.90;;;;;;5058417;28;20033;-59
2022/09/06 04:56:17;;;;;;;12.00;11.05;;;14.80;99.90;;;;;;5056381;28;20025;-61
2022/09/06 04:58:44;;;;;;;10.75;9.88;;;14.80;99.90;;;;;;5056912;28;20121;-60
2022/09/06 05:01:10;;;;;;;11.63;10.75;;;14.80;99.90;;;;;;5057919;28;20056;-61
2022/09/06 05:03:35;;;;;;;9.80;9.20;;;14.90;99.90;;;;;;5059632;28;20551;-60
2022/09/06 05:06:10;;;;;;;11.23;10.15;;;14.90;99.90;;;;;;5058941;28;20480;-61
2022/09/06 05:08:37;;;;;;;9.98;9.27;;;15.00;99.90;;;;;;5051223;28;20031;-60
2022/09/06 05:11:03;;;;;;;10.73;9.88;;;15.10;99.90;;;;;;5054978;28;20032;-62
2022/09/06 05:13:29;;;;;;;10.90;9.90;;;15.20;99.90;;;;;;5057336;28;20036;-60
2022/09/06 05:15:58;;;;;;;12.98;11.68;;;15.30;99.90;;;;;;5056483;28;20025;-60
2022/09/06 05:18:24;;;;;;;12.18;11.18;;;15.30;99.90;;;;;;5059752;28;20103;-60
2022/09/06 05:20:53;;;;;;;12.10;11.20;;;15.50;99.90;;;;;;5052146;28;20152;-60
2022/09/06 05:23:20;;;;;;;11.80;10.70;;;15.60;99.90;;;;;;5053665;28;20043;-60
2022/09/06 05:25:45;;;;;;;12.00;10.77;;;15.70;99.90;;;;;;5056736;28;20496;-61
2022/09/06 05:28:11;;;;;;;10.68;9.77;;;15.80;99.90;;;;;;5057696;28;20032;-60
2022/09/06 05:30:37;;;;;;;11.10;10.20;;;15.90;99.90;;;;;;5055265;28;20035;-60
2022/09/06 05:33:02;;;;;;;11.68;10.75;;;16.10;99.90;;;;;;5057177;28;20029;-60
2022/09/06 05:35:28;;;;;;;12.30;11.40;;;16.20;99.90;;;;;;5052135;28;20087;-60
2022/09/06 05:37:54;;;;;;;11.68;10.70;;;16.30;99.90;;;;;;5052326;28;20033;-61
2022/09/06 05:40:19;;;;;;;11.45;10.52;;;16.40;99.90;;;;;;5056225;28;20017;-60
2022/09/06 05:42:45;;;;;;;11.48;10.27;;;16.50;99.90;;;;;;5053273;28;20024;-61
2022/09/06 05:45:10;;;;;;;10.43;9.63;;;16.70;99.90;;;;;;5056065;28;20032;-60
2022/09/06 05:47:37;;;;;;;10.93;10.23;;;16.80;99.90;;;;;;5054536;28;20033;-61
2022/09/06 05:50:03;;;;;;;10.55;9.75;;;17.00;99.90;;;;;;5054324;28;20036;-60
2022/09/06 05:52:29;;;;;;;10.07;9.27;;;17.30;99.90;;;;;;5058113;28;20068;-64
2022/09/06 05:54:54;;;;;;;9.85;9.15;;;17.60;99.90;;;;;;5056806;28;20049;-63
2022/09/06 05:57:20;;;;;;;8.50;7.80;;;18.00;99.90;;;;;;5053605;28;20023;-61
2022/09/06 05:59:46;;;;;;;8.57;7.95;;;18.50;99.90;;;;;;5035386;28;20256;-61
2022/09/06 06:02:11;;;;;;;9.10;8.40;;;18.90;99.90;;;;;;5055060;28;20033;-62
2022/09/06 06:04:37;;;;;;;8.15;7.43;;;19.30;99.90;;;;;;5056136;28;20029;-62
2022/09/06 06:07:03;;;;;;;8.05;7.30;;;19.80;99.90;;;;;;5055492;28;20032;-63
2022/09/06 06:09:28;;;;;;;7.47;6.75;;;20.20;99.90;;;;;;5056830;28;20048;-61
2022/09/06 06:11:54;;;;;;;7.55;7.05;;;21.00;99.90;;;;;;5049197;28;20379;-61
2022/09/06 06:14:20;;;;;;;6.78;6.32;;;21.50;99.90;;;;;;5058098;28;20025;-61
2022/09/06 06:16:45;;;;;;;6.93;6.43;;;22.20;99.90;;;;;;5055713;28;20028;-60
2022/09/06 06:19:11;;;;;;;6.70;6.20;;;23.00;99.90;;;;;;5055538;28;20033;-62
2022/09/06 06:21:37;;;;;;;6.45;5.95;;;24.10;99.90;;;;;;5055973;28;20072;-61
2022/09/06 06:24:04;;;;;;;6.25;5.65;;;24.80;99.90;;;;;;5064925;28;20021;-60
2022/09/06 06:26:32;;;;;;;6.15;5.75;;;24.90;99.90;;;;;;5054789;28;20084;-60
2022/09/06 06:29:00;;;;;;;6.97;6.40;;;24.50;99.90;;;;;;5054922;28;20033;-60
2022/09/06 06:31:27;;;;;;;6.95;6.53;;;23.90;99.90;;;;;;5058402;28;20039;-60
2022/09/06 06:33:53;;;;;;;7.57;6.88;;;24.10;99.90;;;;;;5053350;28;20018;-60
2022/09/06 06:36:21;;;;;;;7.43;6.22;;;23.50;99.90;;;;;;5056265;28;20035;-60
2022/09/06 06:38:48;;;;;;;8.48;7.78;;;23.00;99.90;;;;;;5059340;28;20201;-60
2022/09/06 06:41:17;;;;;;;7.82;7.22;;;22.40;99.90;;;;;;5056765;28;20060;-61
2022/09/06 06:43:42;;;;;;;7.50;6.88;;;21.70;99.90;;;;;;5059001;28;20060;-62
2022/09/06 06:46:14;;;;;;;7.72;7.22;;;21.40;99.90;;;;;;5039323;28;20057;-62
2022/09/06 06:48:40;;;;;;;9.40;8.55;;;21.10;99.90;;;;;;5057555;28;20403;-65
2022/09/06 06:51:15;;;;;;;9.27;8.43;;;20.70;99.90;;;;;;5055959;28;20017;-61
2022/09/06 06:53:42;;;;;;;9.30;8.43;;;20.50;99.90;;;;;;5059409;28;20366;-62
2022/09/06 06:56:23;;;;;;;8.55;7.72;;;21.10;99.90;;;;;;5059970;28;20036;-64
2022/09/06 06:58:51;;;;;;;7.93;6.90;;;22.20;99.90;;;;;;5058445;28;20115;-62
2022/09/06 07:01:19;;;;;;;7.07;6.35;;;23.50;99.90;;;;;;5058674;28;20040;-60
2022/09/06 07:03:45;;;;;;;6.07;5.57;;;24.60;99.90;;;;;;5057131;28;20036;-63
2022/09/06 07:06:12;;;;;;;5.60;5.10;;;25.40;99.90;;;;;;5059649;28;20096;-59
2022/09/06 07:08:38;;;;;;;5.70;5.30;;;25.80;99.90;;;;;;5057950;28;20029;-62
2022/09/06 07:11:09;;;;;;;6.28;5.38;;;26.10;99.90;;;;;;5059153;28;20112;-63
2022/09/06 07:13:35;;;;;;;;;;;26.60;98.40;;;;;;5046837;28;20568;-59
2022/09/06 07:16:09;;;;;;;6.00;5.38;;;26.90;91.00;;;;;;5061365;28;20019;-60
2022/09/06 07:18:40;;;;;;;4.90;4.60;;;26.90;87.60;;;;;;5057676;28;20039;-60
2022/09/06 07:21:13;;;;;;;5.15;4.75;;;27.50;86.90;;;;;;5060321;28;20036;-59
2022/09/06 07:23:39;;;;;;;5.63;5.22;;;27.00;82.20;;;;;;5051123;28;20041;-59
2022/09/06 07:26:05;;;;;;;5.95;5.55;;;25.70;91.20;;;;;;5058997;28;20039;-60
2022/09/06 07:28:30;;;;;;;9.90;6.40;;;24.70;99.90;;;;;;5056330;28;20029;-61
2022/09/06 07:30:57;;;;;;;6.40;6.00;;;23.80;99.90;;;;;;5058618;28;20021;-59
2022/09/06 07:33:23;;;;;;;7.15;6.43;;;23.20;99.90;;;;;;5059199;28;20040;-61
2022/09/06 07:36:00;;;;;;;7.72;7.05;;;22.50;99.90;;;;;;5058521;28;20037;-59
2022/09/06 07:38:29;;;;;;;7.25;6.70;;;22.10;99.90;;;;;;5056467;28;20033;-59
2022/09/06 07:40:57;;;;;;;7.43;6.93;;;22.10;99.90;;;;;;5061021;28;20037;-62
2022/09/06 07:43:24;;;;;;;7.43;6.88;;;22.10;99.90;;;;;;5054223;28;20056;-62
2022/09/06 07:46:09;;;;;;;6.88;6.28;;;21.90;99.90;;;;;;5059552;28;20023;-61
2022/09/06 07:48:36;;;;;;;7.35;6.85;;;21.80;99.90;;;;;;5058317;28;20048;-61
2022/09/06 07:51:06;;;;;;;7.90;7.40;;;21.50;99.90;;;;;;5058252;28;20387;-61
2022/09/06 07:53:33;;;;;;;8.27;7.70;;;21.30;99.90;;;;;;5053974;28;20516;-60
2022/09/06 07:56:00;;;;;;;8.50;7.85;;;21.10;99.90;;;;;;5058407;28;20037;-62
2022/09/06 07:58:28;;;;;;;8.00;7.50;;;21.10;99.90;;;;;;5061624;28;20400;-61
2022/09/06 08:00:53;;;;;;;7.90;7.30;;;21.20;99.90;;;;;;5060298;28;20021;-61
2022/09/06 08:03:19;;;;;;;7.85;7.35;;;21.20;99.90;;;;;;5058717;28;20028;-62
2022/09/06 08:05:48;;;;;;;7.72;7.28;;;21.20;99.90;;;;;;5056835;28;20056;-61
2022/09/06 08:08:14;;;;;;;7.55;6.93;;;21.40;99.90;;;;;;5057047;28;20025;-61
2022/09/06 08:10:39;;;;;;;10.90;7.47;;;21.40;99.90;;;;;;5059240;28;20055;-61
2022/09/06 08:13:05;;;;;;;8.00;7.30;;;21.30;99.90;;;;;;5059755;28;20052;-60
2022/09/06 08:15:32;;;;;;;7.90;7.30;;;21.20;99.90;;;;;;5056567;28;20116;-61
2022/09/06 08:17:58;;;;;;;7.97;7.38;;;21.30;99.90;;;;;;5056579;28;20033;-61
2022/09/06 08:20:24;;;;;;;7.90;7.30;;;21.30;99.90;;;;;;5054615;28;20042;-61
2022/09/06 08:22:50;;;;;;;8.02;7.47;;;21.30;99.90;;;;;;5055099;28;20393;-61
2022/09/06 08:25:15;;;;;;;8.23;7.40;;;21.30;99.90;;;;;;5057333;28;20029;-62
2022/09/06 08:27:41;;;;;;;7.07;6.68;;;21.30;99.90;;;;;;5055834;28;20083;-61
2022/09/06 08:30:07;;;;;;;7.53;7.03;;;21.40;99.90;;;;;;5061132;28;20082;-61
2022/09/06 08:32:35;;;;;;;7.35;6.85;;;21.50;99.90;;;;;;5056800;28;20028;-61
2022/09/06 08:35:01;;;;;;;8.77;8.18;;;21.50;99.90;;;;;;5056527;28;20060;-61
2022/09/06 08:37:26;;;;;;;8.25;7.65;;;21.50;99.90;;;;;;5058696;28;20056;-62
2022/09/06 08:39:52;;;;;;;10.18;7.82;;;21.40;99.90;;;;;;5049421;28;20115;-62
2022/09/06 08:42:18;;;;;;;8.77;8.07;;;21.30;99.90;;;;;;5044651;28;20017;-61
2022/09/06 08:44:47;;;;;;;8.18;7.53;;;21.30;99.90;;;;;;5055547;28;20091;-60
2022/09/06 08:47:15;;;;;;;8.30;7.80;;;21.30;99.90;;;;;;5058564;28;20021;-61
2022/09/06 08:49:46;;;;;;;8.60;7.80;;;21.30;99.90;;;;;;5059466;28;20044;-60
2022/09/06 08:52:23;;;;;;;8.40;7.70;;;21.10;99.90;;;;;;5057485;28;20025;-62
2022/09/06 08:54:58;;;;;;;7.85;7.35;;;21.00;99.90;;;;;;5058541;28;20021;-61
2022/09/06 08:57:44;;;;;;;8.52;7.93;;;21.00;99.90;;;;;;5057606;28;20021;-60
2022/09/06 09:00:12;;;;;;;8.05;7.55;;;21.00;99.90;;;;;;5059440;28;20043;-61
2022/09/06 09:03:03;;;;;;;8.27;7.68;;;21.00;99.90;;;;;;5061429;28;20395;-61
2022/09/06 09:05:32;;;;;;;7.93;7.32;;;21.10;99.90;;;;;;5055732;28;20033;-62
2022/09/06 09:08:24;;;;;;;7.38;6.88;;;21.20;99.90;;;;;;5055607;28;20021;-61
2022/09/06 09:10:58;;;;;;;7.60;7.10;;;21.40;99.90;;;;;;5052369;28;20025;-63
2022/09/06 09:13:46;;;;;;;7.07;6.47;;;21.60;99.90;;;;;;5055723;28;20020;-61
2022/09/06 09:16:15;;;;;;;7.50;6.85;;;22.10;99.90;;;;;;5058855;28;20103;-61
2022/09/06 09:18:45;;;;;;;7.65;6.75;;;22.50;99.90;;;;;;5056234;28;20448;-62
2022/09/06 09:21:11;;;;;;;6.15;5.68;;;22.90;99.90;;;;;;5059624;28;20032;-61
2022/09/06 09:23:36;;;;;;;6.40;6.00;;;23.20;99.90;;;;;;5056266;28;20025;-59
2022/09/06 09:26:06;;;;;;;6.53;6.05;;;23.30;99.90;;;;;;5058776;28;20080;-59
2022/09/06 09:28:32;;;;;;;6.30;5.75;;;23.30;99.90;;;;;;5056756;28;20029;-59
2022/09/06 09:30:57;;;;;;;6.43;5.93;;;23.40;99.90;;;;;;5060013;28;20546;-59
2022/09/06 09:33:39;;;;;;;5.75;5.32;;;23.10;99.90;;;;;;5060397;28;20083;-63
2022/09/06 09:36:11;;;;;;;5.80;5.30;;;23.00;99.90;;;;;;5054524;28;20120;-63
2022/09/06 09:38:45;;;;;;;6.32;5.88;;;22.70;99.90;;;;;;5058669;28;20066;-63
2022/09/06 09:41:28;;;;;;;7.57;7.07;;;22.50;99.90;;;;;;5053096;28;20029;-63
2022/09/06 09:44:16;;;;;;;5.85;5.32;;;22.50;99.90;;;;;;5055927;28;20048;-61
2022/09/06 09:46:42;;;;;;;6.45;6.05;;;22.50;99.90;;;;;;5058797;28;20106;-62
2022/09/06 09:49:12;;;;;;;6.10;5.75;;;22.50;99.90;;;;;;5058754;28;20484;-61
2022/09/06 09:51:45;;;;;;;12.80;6.10;;;22.40;99.90;;;;;;5056868;28;20095;-61
2022/09/06 09:54:13;;;;;;;6.65;6.20;;;22.30;99.90;;;;;;5059181;28;20283;-62
2022/09/06 09:56:52;;;;;;;6.07;5.55;;;22.30;99.90;;;;;;5054848;28;20483;-61
2022/09/06 09:59:21;;;;;;;6.28;5.78;;;22.30;99.90;;;;;;5057302;28;20025;-62
2022/09/06 10:01:47;;;;;;;6.32;5.90;;;22.40;99.90;;;;;;5058920;28;20438;-61
2022/09/06 10:04:21;;;;;;;7.05;6.45;;;22.50;99.90;;;;;;5056308;28;20040;-61
2022/09/06 10:06:46;;;;;;;6.35;5.43;;;22.60;99.90;;;;;;5060588;28;20099;-61
2022/09/06 10:09:34;;;;;;;6.70;5.75;;;22.70;99.90;;;;;;5058395;28;20031;-61
2022/09/06 10:12:00;;;;;;;6.35;5.88;;;22.90;99.90;;;;;;5040449;28;20076;-61
2022/09/06 10:14:44;;;;;;;5.95;5.40;;;23.00;99.90;;;;;;5057310;28;20029;-61
2022/09/06 10:17:21;;;;;;;5.65;5.03;;;23.20;99.90;;;;;;5057931;28;20024;-61
2022/09/06 10:19:47;;;;;;;6.15;5.63;;;23.40;99.90;;;;;;5046976;28;20510;-60
2022/09/06 10:22:27;;;;;;;5.78;5.18;;;23.70;99.90;;;;;;5040014;28;20026;-62
2022/09/06 10:25:06;;;;;;;5.60;5.18;;;24.00;99.90;;;;;;5037641;28;20500;-59
2022/09/06 10:27:32;;;;;;;6.05;5.18;;;24.50;99.90;;;;;;5036824;28;20418;-59
2022/09/06 10:30:04;;;;;;;5.32;5.03;;;25.00;99.90;;;;;;5035842;28;20025;-59
2022/09/06 10:33:10;;;;;;;7.13;4.72;;;25.30;99.90;;;;;;5043211;28;20099;-59
2022/09/06 10:35:37;;;;;;;5.13;4.82;;;25.30;99.90;;;;;;5056742;28;20579;-59
2022/09/06 10:38:31;;;;;;;6.25;4.68;;;25.50;99.90;;;;;;5058372;28;20093;-63
2022/09/06 10:41:28;;;;;;;5.38;4.90;;;26.00;99.90;;;;;;5056657;28;20031;-61
2022/09/06 10:44:20;;;;;;;5.57;5.03;;;26.30;98.30;;;;;;5056974;28;20558;-60
2022/09/06 10:46:49;;;;;;;5.68;5.13;;;26.10;96.20;;;;;;5060949;28;20043;-59
2022/09/06 10:49:18;;;;;;;5.55;5.18;;;25.70;99.90;;;;;;5054526;28;20044;-62
2022/09/06 10:51:51;;;;;;;5.50;5.10;;;25.40;99.90;;;;;;5039697;28;20554;-59
2022/09/06 10:54:22;;;;;;;7.43;5.18;;;25.00;99.90;;;;;;5052986;28;20123;-62
2022/09/06 10:57:01;;;;;;;5.70;5.30;;;24.90;99.90;;;;;;5055622;28;20492;-59
2022/09/06 10:59:30;;;;;;;6.13;5.53;;;24.90;99.90;;;;;;5056105;28;20052;-61
2022/09/06 11:02:10;;;;;;;5.65;5.15;;;24.80;99.90;;;;;;5057385;28;20944;-59
2022/09/06 11:04:38;;;;;;;7.30;5.18;;;25.00;99.90;;;;;;5054997;28;20032;-61
2022/09/06 11:07:35;;;;;;;5.45;5.07;;;25.50;99.90;;;;;;5053608;28;20119;-60
2022/09/06 11:10:23;;;;;;;5.22;4.90;;;26.20;96.10;;;;;;5055018;28;20040;-62
2022/09/06 11:12:49;;;;;;;6.10;5.13;;;26.80;92.50;;;;;;5055386;28;20025;-61
2022/09/06 11:15:16;;;;;;;5.07;4.68;;;27.40;91.70;;;;;;5052924;28;20090;-62
2022/09/06 11:17:55;;;;;;;5.13;4.78;;;28.00;84.80;;;;;;5056516;28;20431;-59
2022/09/06 11:20:44;;;;;;;4.32;3.92;;;28.70;81.70;;;;;;5052508;28;20094;-59
2022/09/06 11:23:32;;;;;;;4.40;4.10;;;28.90;80.00;;;;;;5054384;28;20448;-59
2022/09/06 11:26:12;;;;;;;4.82;4.43;;;29.70;75.50;;;;;;5051175;28;20025;-63
2022/09/06 11:29:09;;;;;;;7.00;4.60;;;29.60;68.70;;;;;;5054578;28;20036;-65
2022/09/06 11:32:03;;;;;;;4.68;4.00;;;29.00;69.20;;;;;;5039902;28;20033;-59
2022/09/06 11:34:36;;;;;;;5.28;4.40;;;29.80;72.90;;;;;;5058112;28;20061;-58
2022/09/06 11:37:07;;;;;;;4.82;4.40;;;30.10;66.90;;;;;;5056801;28;20821;-59
2022/09/06 11:39:44;;;;;;;4.72;4.32;;;30.10;65.20;;;;;;5062304;28;20036;-61
2022/09/06 11:42:39;;;;;;;4.93;4.35;;;29.90;65.10;;;;;;5059061;28;20033;-58
2022/09/06 11:45:10;;;;;;;4.30;3.97;;;30.40;68.00;;;;;;5060415;28;20116;-59
2022/09/06 11:47:38;;;;;;;5.30;4.80;;;30.00;64.00;;;;;;5056002;28;20751;-61
2022/09/06 11:50:27;;;;;;;4.40;4.10;;;29.90;64.90;;;;;;5057444;28;20075;-59
2022/09/06 11:53:06;;;;;;;4.05;3.75;;;29.80;64.40;;;;;;5059218;28;20391;-59
2022/09/06 11:55:45;;;;;;;5.22;4.47;;;30.10;66.60;;;;;;5057023;28;20275;-59
2022/09/06 11:58:25;;;;;;;4.03;3.60;;;30.20;64.70;;;;;;5058010;28;20501;-60
2022/09/06 12:01:29;;;;;;;4.07;3.78;;;30.60;63.40;;;;;;5064488;28;20112;-59
2022/09/06 12:04:06;;;;;;;4.10;3.80;;;30.00;64.50;;;;;;4969673;28;20118;-60
2022/09/06 12:07:08;;;;;;;5.20;3.65;;;29.90;66.60;;;;;;4971736;28;20042;-59
2022/09/06 12:09:37;;;;;;;4.32;4.03;;;30.00;63.60;;;;;;5040612;28;20456;-59
2022/09/06 12:12:03;;;;;;;4.10;3.78;;;30.00;63.30;;;;;;5062340;28;20119;-61
2022/09/06 12:14:45;;;;;;;3.60;3.30;;;30.10;64.60;;;;;;5059019;28;20927;-61
2022/09/06 12:17:15;;;;;;;4.13;3.72;;;30.30;63.80;;;;;;5054886;28;20048;-61
2022/09/06 12:19:50;;;;;;;4.03;3.57;;;30.60;63.20;;;;;;5061798;28;20029;-59
2022/09/06 12:22:28;;;;;;;3.38;3.15;;;30.50;63.70;;;;;;5056584;28;20025;-58
2022/09/06 12:24:58;;;;;;;4.70;3.20;;;30.50;62.90;;;;;;5052969;28;20485;-59
2022/09/06 12:27:38;;;;;;;5.43;3.50;;;30.70;63.50;;;;;;5059716;28;20035;-60
2022/09/06 12:30:07;;;;;;;4.03;3.60;;;30.80;62.50;;;;;;5059320;28;20128;-59
2022/09/06 12:32:47;;;;;;;3.40;3.13;;;30.80;62.20;;;;;;5041888;28;20041;-61
2022/09/06 12:35:22;;;;;;;3.72;3.10;;;31.10;59.60;;;;;;5058776;28;20109;-59
2022/09/06 12:38:06;;;;;;;4.30;3.03;;;31.10;58.20;;;;;;5052320;28;20036;-59
2022/09/06 12:40:39;;;;;;;2.90;2.70;;;31.10;59.10;;;;;;5051131;28;20036;-60
2022/09/06 12:43:09;;;;;;;3.28;2.95;;;30.80;62.20;;;;;;5056610;28;20037;-58
2022/09/06 12:45:45;;;;;;;4.32;2.75;;;31.40;60.00;;;;;;5056196;28;20125;-59
2022/09/06 12:48:24;;;;;;;3.38;3.08;;;31.70;60.00;;;;;;5057808;28;20135;-60
2022/09/06 12:51:04;;;;;;;3.00;2.78;;;31.70;56.20;;;;;;5056635;28;20448;-62
2022/09/06 12:53:30;;;;;;;2.55;2.00;;;32.00;57.60;;;;;;5056144;28;20036;-59
2022/09/06 12:56:11;;;;;;;2.80;2.42;;;32.70;57.80;;;;;;5060229;28;20507;-61
2022/09/06 12:58:38;;;;;;;2.40;2.20;;;33.40;54.10;;;;;;5058855;28;20040;-59
2022/09/06 13:01:21;;;;;;;2.30;2.20;;;33.70;54.30;;;;;;5053567;28;20491;-61
2022/09/06 13:04:01;;;;;;;3.60;2.45;;;33.90;53.80;;;;;;5055289;28;20029;-59
2022/09/06 13:06:29;;;;;;;3.92;2.35;;;34.10;51.90;;;;;;5058020;28;20136;-60